sensor_id;sensor_type;location;lat;lon;timestamp;P1;durP1;ratioP1;P2;durP2;ratioP2
74612;SDS011;63119;51.788;8.824;2023-02-01T00:01:45;10.60;;;2.87;;
74612;SDS011;63119;51.788;8.824;2023-02-01T00:04:11;14.00;;;2.85;;
74612;SDS011;63119;51.788;8.824;2023-02-01T00:06:36;13.52;;;3.85;;
74612;SDS011;63119;51.788;8.824;2023-02-01T00:09:02;13.33;;;3.27;;
74612;SDS011;63119;51.788;8.824;2023-02-01T00:11:27;13.80;;;4.00;;
74612;SDS011;63119;51.788;8.824;2023-02-01T00:13:52;18.33;;;3.80;;
74612;SDS011;63119;51.788;8.824;2023-02-01T00:16:19;15.38;;;3.72;;
74612;SDS011;63119;51.788;8.824;2023-02-01T00:18:47;13.48;;;3.38;;
74612;SDS011;63119;51.788;8.824;2023-02-01T00:21:14;14.48;;;3.88;;
74612;SDS011;63119;51.788;8.824;2023-02-01T00:23:41;12.43;;;3.65;;
74612;SDS011;63119;51.788;8.824;2023-02-01T00:26:07;10.63;;;3.35;;
74612;SDS011;63119;51.788;8.824;2023-02-01T00:28:38;16.70;;;3.35;;
74612;SDS011;63119;51.788;8.824;2023-02-01T00:31:05;16.77;;;4.00;;
74612;SDS011;63119;51.788;8.824;2023-02-01T00:33:31;17.23;;;3.60;;
74612;SDS011;63119;51.788;8.824;2023-02-01T00:35:58;9.20;;;3.38;;
74612;SDS011;63119;51.788;8.824;2023-02-01T00:38:25;12.18;;;3.40;;
74612;SDS011;63119;51.788;8.824;2023-02-01T00:40:51;18.05;;;3.60;;
74612;SDS011;63119;51.788;8.824;2023-02-01T00:43:16;11.90;;;3.37;;
74612;SDS011;63119;51.788;8.824;2023-02-01T00:45:41;10.10;;;3.30;;
74612;SDS011;63119;51.788;8.824;2023-02-01T00:48:06;20.77;;;4.90;;
74612;SDS011;63119;51.788;8.824;2023-02-01T00:50:32;12.67;;;3.63;;
74612;SDS011;63119;51.788;8.824;2023-02-01T00:52:57;13.60;;;3.53;;
74612;SDS011;63119;51.788;8.824;2023-02-01T00:55:22;15.17;;;3.33;;
74612;SDS011;63119;51.788;8.824;2023-02-01T00:57:47;12.57;;;3.57;;
74612;SDS011;63119;51.788;8.824;2023-02-01T01:00:13;15.40;;;3.73;;
74612;SDS011;63119;51.788;8.824;2023-02-01T01:02:38;12.20;;;3.05;;
74612;SDS011;63119;51.788;8.824;2023-02-01T01:05:04;10.00;;;3.17;;
74612;SDS011;63119;51.788;8.824;2023-02-01T01:07:29;15.60;;;3.57;;
74612;SDS011;63119;51.788;8.824;2023-02-01T01:09:54;12.63;;;3.50;;
74612;SDS011;63119;51.788;8.824;2023-02-01T01:12:20;15.15;;;3.88;;
74612;SDS011;63119;51.788;8.824;2023-02-01T01:14:45;15.30;;;4.03;;
74612;SDS011;63119;51.788;8.824;2023-02-01T01:17:10;19.37;;;4.20;;
74612;SDS011;63119;51.788;8.824;2023-02-01T01:19:36;13.35;;;3.97;;
74612;SDS011;63119;51.788;8.824;2023-02-01T01:22:01;16.40;;;3.90;;
74612;SDS011;63119;51.788;8.824;2023-02-01T01:24:27;13.23;;;4.00;;
74612;SDS011;63119;51.788;8.824;2023-02-01T01:26:52;18.13;;;4.40;;
74612;SDS011;63119;51.788;8.824;2023-02-01T01:29:17;17.27;;;4.17;;
74612;SDS011;63119;51.788;8.824;2023-02-01T01:31:42;16.20;;;4.63;;
74612;SDS011;63119;51.788;8.824;2023-02-01T01:34:07;17.90;;;3.97;;
74612;SDS011;63119;51.788;8.824;2023-02-01T01:36:33;18.40;;;4.63;;
74612;SDS011;63119;51.788;8.824;2023-02-01T01:38:58;15.50;;;5.07;;
74612;SDS011;63119;51.788;8.824;2023-02-01T01:41:24;17.63;;;4.70;;
74612;SDS011;63119;51.788;8.824;2023-02-01T01:43:58;16.60;;;5.30;;
74612;SDS011;63119;51.788;8.824;2023-02-01T01:46:27;18.08;;;4.53;;
74612;SDS011;63119;51.788;8.824;2023-02-01T01:51:32;14.85;;;6.25;;
74612;SDS011;63119;51.788;8.824;2023-02-01T01:54:04;16.85;;;4.57;;
74612;SDS011;63119;51.788;8.824;2023-02-01T01:56:37;18.20;;;5.53;;
74612;SDS011;63119;51.788;8.824;2023-02-01T01:59:03;13.45;;;5.43;;
74612;SDS011;63119;51.788;8.824;2023-02-01T02:01:29;20.27;;;6.30;;
74612;SDS011;63119;51.788;8.824;2023-02-01T02:03:54;21.08;;;5.85;;
74612;SDS011;63119;51.788;8.824;2023-02-01T02:06:30;15.48;;;5.97;;
74612;SDS011;63119;51.788;8.824;2023-02-01T02:09:02;22.88;;;6.60;;
74612;SDS011;63119;51.788;8.824;2023-02-01T02:11:28;20.48;;;5.95;;
74612;SDS011;63119;51.788;8.824;2023-02-01T02:13:53;23.10;;;6.43;;
74612;SDS011;63119;51.788;8.824;2023-02-01T02:16:32;20.80;;;6.85;;
74612;SDS011;63119;51.788;8.824;2023-02-01T02:33:41;17.80;;;6.00;;
74612;SDS011;63119;51.788;8.824;2023-02-01T02:36:34;21.92;;;6.40;;
74612;SDS011;63119;51.788;8.824;2023-02-01T02:39:12;18.05;;;6.75;;
74612;SDS011;63119;51.788;8.824;2023-02-01T02:41:54;17.55;;;5.82;;
74612;SDS011;63119;51.788;8.824;2023-02-01T02:45:28;18.48;;;5.38;;
74612;SDS011;63119;51.788;8.824;2023-02-01T02:48:35;22.17;;;5.43;;
74612;SDS011;63119;51.788;8.824;2023-02-01T02:51:09;12.00;;;5.20;;
74612;SDS011;63119;51.788;8.824;2023-02-01T02:54:05;15.05;;;5.13;;
74612;SDS011;63119;51.788;8.824;2023-02-01T02:56:53;12.57;;;4.78;;
74612;SDS011;63119;51.788;8.824;2023-02-01T02:59:41;16.75;;;4.88;;
74612;SDS011;63119;51.788;8.824;2023-02-01T03:02:28;15.07;;;4.60;;
74612;SDS011;63119;51.788;8.824;2023-02-01T03:05:14;29.63;;;5.40;;
74612;SDS011;63119;51.788;8.824;2023-02-01T03:10:10;12.80;;;4.38;;
74612;SDS011;63119;51.788;8.824;2023-02-01T03:12:49;13.90;;;3.95;;
74612;SDS011;63119;51.788;8.824;2023-02-01T03:15:23;16.73;;;4.47;;
74612;SDS011;63119;51.788;8.824;2023-02-01T03:17:54;17.55;;;4.85;;
74612;SDS011;63119;51.788;8.824;2023-02-01T03:22:49;17.65;;;4.63;;
74612;SDS011;63119;51.788;8.824;2023-02-01T03:25:27;10.77;;;3.30;;
74612;SDS011;63119;51.788;8.824;2023-02-01T03:27:57;16.55;;;4.63;;
74612;SDS011;63119;51.788;8.824;2023-02-01T03:30:31;11.52;;;3.20;;
74612;SDS011;63119;51.788;8.824;2023-02-01T03:33:02;17.70;;;4.15;;
74612;SDS011;63119;51.788;8.824;2023-02-01T03:35:38;13.43;;;3.28;;
74612;SDS011;63119;51.788;8.824;2023-02-01T03:40:53;11.30;;;2.97;;
74612;SDS011;63119;51.788;8.824;2023-02-01T03:43:27;20.63;;;3.50;;
74612;SDS011;63119;51.788;8.824;2023-02-01T03:45:58;9.35;;;2.50;;
74612;SDS011;63119;51.788;8.824;2023-02-01T03:48:26;7.18;;;2.47;;
74612;SDS011;63119;51.788;8.824;2023-02-01T03:50:54;14.52;;;3.22;;
74612;SDS011;63119;51.788;8.824;2023-02-01T03:53:22;10.45;;;2.67;;
74612;SDS011;63119;51.788;8.824;2023-02-01T03:55:50;10.73;;;2.83;;
74612;SDS011;63119;51.788;8.824;2023-02-01T03:58:19;14.40;;;2.50;;
74612;SDS011;63119;51.788;8.824;2023-02-01T04:00:56;15.32;;;4.00;;
74612;SDS011;63119;51.788;8.824;2023-02-01T04:03:23;8.25;;;3.10;;
74612;SDS011;63119;51.788;8.824;2023-02-01T04:05:50;13.02;;;2.70;;
74612;SDS011;63119;51.788;8.824;2023-02-01T04:08:20;16.40;;;2.85;;
74612;SDS011;63119;51.788;8.824;2023-02-01T04:10:46;12.00;;;3.05;;
74612;SDS011;63119;51.788;8.824;2023-02-01T04:13:11;8.60;;;2.65;;
74612;SDS011;63119;51.788;8.824;2023-02-01T04:15:37;13.13;;;3.10;;
74612;SDS011;63119;51.788;8.824;2023-02-01T04:18:02;15.52;;;3.33;;
74612;SDS011;63119;51.788;8.824;2023-02-01T04:20:28;14.85;;;2.60;;
74612;SDS011;63119;51.788;8.824;2023-02-01T04:22:53;10.32;;;2.53;;
74612;SDS011;63119;51.788;8.824;2023-02-01T04:25:19;13.30;;;3.05;;
74612;SDS011;63119;51.788;8.824;2023-02-01T04:27:44;13.57;;;2.83;;
74612;SDS011;63119;51.788;8.824;2023-02-01T04:30:10;9.63;;;2.43;;
74612;SDS011;63119;51.788;8.824;2023-02-01T04:32:36;8.65;;;2.33;;
74612;SDS011;63119;51.788;8.824;2023-02-01T04:35:02;10.98;;;2.95;;
74612;SDS011;63119;51.788;8.824;2023-02-01T04:37:28;9.98;;;2.78;;
74612;SDS011;63119;51.788;8.824;2023-02-01T04:39:53;11.20;;;2.40;;
74612;SDS011;63119;51.788;8.824;2023-02-01T04:42:19;14.70;;;2.93;;
74612;SDS011;63119;51.788;8.824;2023-02-01T04:44:44;13.43;;;3.13;;
74612;SDS011;63119;51.788;8.824;2023-02-01T04:47:09;10.07;;;2.60;;
74612;SDS011;63119;51.788;8.824;2023-02-01T04:49:34;11.70;;;2.97;;
74612;SDS011;63119;51.788;8.824;2023-02-01T04:52:00;13.35;;;3.13;;
74612;SDS011;63119;51.788;8.824;2023-02-01T04:54:25;12.03;;;2.40;;
74612;SDS011;63119;51.788;8.824;2023-02-01T04:56:50;10.17;;;2.33;;
74612;SDS011;63119;51.788;8.824;2023-02-01T04:59:16;13.87;;;2.83;;
74612;SDS011;63119;51.788;8.824;2023-02-01T05:01:41;10.77;;;2.87;;
74612;SDS011;63119;51.788;8.824;2023-02-01T05:04:06;12.80;;;3.27;;
74612;SDS011;63119;51.788;8.824;2023-02-01T05:06:31;16.23;;;3.03;;
74612;SDS011;63119;51.788;8.824;2023-02-01T05:08:56;13.03;;;2.63;;
74612;SDS011;63119;51.788;8.824;2023-02-01T05:11:22;7.43;;;2.97;;
74612;SDS011;63119;51.788;8.824;2023-02-01T05:14:05;12.85;;;3.45;;
74612;SDS011;63119;51.788;8.824;2023-02-01T05:16:31;14.97;;;2.23;;
74612;SDS011;63119;51.788;8.824;2023-02-01T05:18:56;11.67;;;2.27;;
74612;SDS011;63119;51.788;8.824;2023-02-01T05:21:21;16.83;;;2.50;;
74612;SDS011;63119;51.788;8.824;2023-02-01T05:23:46;13.40;;;2.53;;
74612;SDS011;63119;51.788;8.824;2023-02-01T05:26:31;10.88;;;3.20;;
74612;SDS011;63119;51.788;8.824;2023-02-01T05:28:56;15.00;;;2.67;;
74612;SDS011;63119;51.788;8.824;2023-02-01T05:31:22;8.80;;;2.35;;
74612;SDS011;63119;51.788;8.824;2023-02-01T05:33:48;12.38;;;2.67;;
74612;SDS011;63119;51.788;8.824;2023-02-01T05:36:13;12.40;;;2.80;;
74612;SDS011;63119;51.788;8.824;2023-02-01T05:38:39;16.27;;;2.70;;
74612;SDS011;63119;51.788;8.824;2023-02-01T05:41:04;10.93;;;3.37;;
74612;SDS011;63119;51.788;8.824;2023-02-01T05:43:29;16.50;;;2.30;;
74612;SDS011;63119;51.788;8.824;2023-02-01T05:45:54;16.20;;;2.57;;
74612;SDS011;63119;51.788;8.824;2023-02-01T05:48:20;12.90;;;2.73;;
74612;SDS011;63119;51.788;8.824;2023-02-01T05:50:45;15.80;;;2.47;;
74612;SDS011;63119;51.788;8.824;2023-02-01T05:53:10;11.52;;;2.60;;
74612;SDS011;63119;51.788;8.824;2023-02-01T05:55:36;13.77;;;3.28;;
74612;SDS011;63119;51.788;8.824;2023-02-01T05:58:02;12.35;;;2.22;;
74612;SDS011;63119;51.788;8.824;2023-02-01T06:00:27;15.60;;;3.22;;
74612;SDS011;63119;51.788;8.824;2023-02-01T06:02:53;12.30;;;2.80;;
74612;SDS011;63119;51.788;8.824;2023-02-01T06:05:18;12.27;;;2.70;;
74612;SDS011;63119;51.788;8.824;2023-02-01T06:07:43;12.67;;;3.33;;
74612;SDS011;63119;51.788;8.824;2023-02-01T06:10:09;9.17;;;2.43;;
74612;SDS011;63119;51.788;8.824;2023-02-01T06:12:34;19.27;;;3.00;;
74612;SDS011;63119;51.788;8.824;2023-02-01T06:15:00;9.00;;;2.20;;
74612;SDS011;63119;51.788;8.824;2023-02-01T06:17:25;11.65;;;2.50;;
74612;SDS011;63119;51.788;8.824;2023-02-01T06:19:50;15.67;;;2.47;;
74612;SDS011;63119;51.788;8.824;2023-02-01T06:22:16;14.93;;;2.73;;
74612;SDS011;63119;51.788;8.824;2023-02-01T06:24:41;14.30;;;3.00;;
74612;SDS011;63119;51.788;8.824;2023-02-01T06:27:07;13.10;;;2.70;;
74612;SDS011;63119;51.788;8.824;2023-02-01T06:29:34;12.25;;;2.55;;
74612;SDS011;63119;51.788;8.824;2023-02-01T06:31:59;11.67;;;2.90;;
74612;SDS011;63119;51.788;8.824;2023-02-01T06:34:24;13.43;;;2.87;;
74612;SDS011;63119;51.788;8.824;2023-02-01T06:36:50;13.07;;;2.73;;
74612;SDS011;63119;51.788;8.824;2023-02-01T06:39:15;12.93;;;2.30;;
74612;SDS011;63119;51.788;8.824;2023-02-01T06:41:41;14.13;;;2.78;;
74612;SDS011;63119;51.788;8.824;2023-02-01T06:44:11;12.43;;;2.90;;
74612;SDS011;63119;51.788;8.824;2023-02-01T06:46:36;14.67;;;2.77;;
74612;SDS011;63119;51.788;8.824;2023-02-01T06:49:01;11.83;;;2.30;;
74612;SDS011;63119;51.788;8.824;2023-02-01T06:51:27;13.48;;;2.28;;
74612;SDS011;63119;51.788;8.824;2023-02-01T06:53:54;9.80;;;2.60;;
74612;SDS011;63119;51.788;8.824;2023-02-01T06:56:19;6.75;;;2.10;;
74612;SDS011;63119;51.788;8.824;2023-02-01T06:58:45;16.33;;;2.95;;
74612;SDS011;63119;51.788;8.824;2023-02-01T07:01:11;11.60;;;2.35;;
74612;SDS011;63119;51.788;8.824;2023-02-01T07:03:37;10.15;;;2.60;;
74612;SDS011;63119;51.788;8.824;2023-02-01T07:06:03;7.85;;;1.80;;
74612;SDS011;63119;51.788;8.824;2023-02-01T07:08:30;9.38;;;3.00;;
74612;SDS011;63119;51.788;8.824;2023-02-01T07:10:56;12.40;;;2.65;;
74612;SDS011;63119;51.788;8.824;2023-02-01T07:13:21;11.02;;;2.35;;
74612;SDS011;63119;51.788;8.824;2023-02-01T07:15:47;10.38;;;2.70;;
74612;SDS011;63119;51.788;8.824;2023-02-01T07:18:12;10.77;;;2.47;;
74612;SDS011;63119;51.788;8.824;2023-02-01T07:20:39;10.88;;;2.45;;
74612;SDS011;63119;51.788;8.824;2023-02-01T07:23:04;12.52;;;2.35;;
74612;SDS011;63119;51.788;8.824;2023-02-01T07:25:29;10.97;;;2.33;;
74612;SDS011;63119;51.788;8.824;2023-02-01T07:27:55;8.37;;;2.43;;
74612;SDS011;63119;51.788;8.824;2023-02-01T07:30:20;14.77;;;3.07;;
74612;SDS011;63119;51.788;8.824;2023-02-01T07:32:45;13.50;;;3.25;;
74612;SDS011;63119;51.788;8.824;2023-02-01T07:35:10;17.20;;;3.17;;
74612;SDS011;63119;51.788;8.824;2023-02-01T07:37:36;10.60;;;2.60;;
74612;SDS011;63119;51.788;8.824;2023-02-01T07:40:01;9.87;;;2.07;;
74612;SDS011;63119;51.788;8.824;2023-02-01T07:42:26;12.03;;;2.47;;
74612;SDS011;63119;51.788;8.824;2023-02-01T07:44:52;11.93;;;2.07;;
74612;SDS011;63119;51.788;8.824;2023-02-01T07:47:17;13.20;;;2.43;;
74612;SDS011;63119;51.788;8.824;2023-02-01T07:49:42;7.20;;;2.00;;
74612;SDS011;63119;51.788;8.824;2023-02-01T07:52:07;11.90;;;2.47;;
74612;SDS011;63119;51.788;8.824;2023-02-01T07:54:33;12.27;;;2.92;;
74612;SDS011;63119;51.788;8.824;2023-02-01T07:56:58;9.60;;;2.40;;
74612;SDS011;63119;51.788;8.824;2023-02-01T07:59:23;8.23;;;2.53;;
74612;SDS011;63119;51.788;8.824;2023-02-01T08:01:48;10.17;;;2.33;;
74612;SDS011;63119;51.788;8.824;2023-02-01T08:04:14;13.83;;;3.03;;
74612;SDS011;63119;51.788;8.824;2023-02-01T08:06:39;12.38;;;2.33;;
74612;SDS011;63119;51.788;8.824;2023-02-01T08:09:04;9.93;;;2.00;;
74612;SDS011;63119;51.788;8.824;2023-02-01T08:11:31;9.30;;;2.13;;
74612;SDS011;63119;51.788;8.824;2023-02-01T08:13:57;9.30;;;2.85;;
74612;SDS011;63119;51.788;8.824;2023-02-01T08:16:23;15.88;;;3.95;;
74612;SDS011;63119;51.788;8.824;2023-02-01T08:18:49;13.88;;;2.78;;
74612;SDS011;63119;51.788;8.824;2023-02-01T08:21:16;11.23;;;2.95;;
74612;SDS011;63119;51.788;8.824;2023-02-01T08:23:44;9.45;;;2.67;;
74612;SDS011;63119;51.788;8.824;2023-02-01T08:26:10;12.32;;;2.72;;
74612;SDS011;63119;51.788;8.824;2023-02-01T08:28:39;12.05;;;2.38;;
74612;SDS011;63119;51.788;8.824;2023-02-01T08:31:07;9.85;;;2.92;;
74612;SDS011;63119;51.788;8.824;2023-02-01T08:33:43;11.35;;;2.47;;
74612;SDS011;63119;51.788;8.824;2023-02-01T08:36:12;9.95;;;2.97;;
74612;SDS011;63119;51.788;8.824;2023-02-01T08:38:38;11.23;;;3.03;;
74612;SDS011;63119;51.788;8.824;2023-02-01T08:41:05;12.57;;;2.22;;
74612;SDS011;63119;51.788;8.824;2023-02-01T08:43:31;10.55;;;2.58;;
74612;SDS011;63119;51.788;8.824;2023-02-01T08:45:56;16.37;;;4.23;;
74612;SDS011;63119;51.788;8.824;2023-02-01T08:48:21;15.70;;;3.40;;
74612;SDS011;63119;51.788;8.824;2023-02-01T08:50:46;8.63;;;2.80;;
74612;SDS011;63119;51.788;8.824;2023-02-01T08:53:12;9.80;;;2.57;;
74612;SDS011;63119;51.788;8.824;2023-02-01T08:55:38;15.00;;;3.38;;
74612;SDS011;63119;51.788;8.824;2023-02-01T08:58:04;15.20;;;2.60;;
74612;SDS011;63119;51.788;8.824;2023-02-01T09:00:29;12.23;;;2.83;;
74612;SDS011;63119;51.788;8.824;2023-02-01T09:02:55;8.80;;;2.63;;
74612;SDS011;63119;51.788;8.824;2023-02-01T09:05:20;15.07;;;3.60;;
74612;SDS011;63119;51.788;8.824;2023-02-01T09:07:47;14.80;;;3.55;;
74612;SDS011;63119;51.788;8.824;2023-02-01T09:10:12;18.77;;;3.60;;
74612;SDS011;63119;51.788;8.824;2023-02-01T09:12:37;15.43;;;2.90;;
74612;SDS011;63119;51.788;8.824;2023-02-01T09:15:03;16.03;;;3.10;;
74612;SDS011;63119;51.788;8.824;2023-02-01T09:17:30;12.77;;;2.75;;
74612;SDS011;63119;51.788;8.824;2023-02-01T09:19:56;17.53;;;3.00;;
74612;SDS011;63119;51.788;8.824;2023-02-01T09:22:21;14.03;;;2.77;;
74612;SDS011;63119;51.788;8.824;2023-02-01T09:24:46;19.20;;;4.30;;
74612;SDS011;63119;51.788;8.824;2023-02-01T09:27:12;10.73;;;2.25;;
74612;SDS011;63119;51.788;8.824;2023-02-01T09:29:37;12.07;;;2.33;;
74612;SDS011;63119;51.788;8.824;2023-02-01T09:32:02;9.30;;;2.10;;
74612;SDS011;63119;51.788;8.824;2023-02-01T09:34:28;12.73;;;3.53;;
74612;SDS011;63119;51.788;8.824;2023-02-01T09:36:54;11.07;;;2.67;;
74612;SDS011;63119;51.788;8.824;2023-02-01T09:39:19;19.23;;;4.73;;
74612;SDS011;63119;51.788;8.824;2023-02-01T09:47:02;9.98;;;2.95;;
74612;SDS011;63119;51.788;8.824;2023-02-01T09:49:29;13.55;;;2.97;;
74612;SDS011;63119;51.788;8.824;2023-02-01T09:51:56;13.10;;;3.90;;
74612;SDS011;63119;51.788;8.824;2023-02-01T09:54:25;12.88;;;3.10;;
74612;SDS011;63119;51.788;8.824;2023-02-01T09:56:56;14.40;;;3.25;;
74612;SDS011;63119;51.788;8.824;2023-02-01T09:59:52;11.93;;;3.03;;
74612;SDS011;63119;51.788;8.824;2023-02-01T10:02:20;12.20;;;3.10;;
74612;SDS011;63119;51.788;8.824;2023-02-01T10:04:48;15.23;;;3.92;;
74612;SDS011;63119;51.788;8.824;2023-02-01T10:07:20;12.48;;;2.78;;
74612;SDS011;63119;51.788;8.824;2023-02-01T10:10:03;16.30;;;3.30;;
74612;SDS011;63119;51.788;8.824;2023-02-01T10:13:01;14.15;;;3.67;;
74612;SDS011;63119;51.788;8.824;2023-02-01T10:27:01;22.98;;;3.80;;
74612;SDS011;63119;51.788;8.824;2023-02-01T10:29:37;11.18;;;3.13;;
74612;SDS011;63119;51.788;8.824;2023-02-01T10:32:16;14.70;;;3.80;;
74612;SDS011;63119;51.788;8.824;2023-02-01T10:34:46;15.73;;;3.50;;
74612;SDS011;63119;51.788;8.824;2023-02-01T10:39:47;11.00;;;3.15;;
74612;SDS011;63119;51.788;8.824;2023-02-01T10:42:15;8.93;;;3.83;;
74612;SDS011;63119;51.788;8.824;2023-02-01T10:44:43;17.27;;;4.22;;
74612;SDS011;63119;51.788;8.824;2023-02-01T10:47:10;15.90;;;3.88;;
74612;SDS011;63119;51.788;8.824;2023-02-01T10:49:47;12.38;;;3.28;;
74612;SDS011;63119;51.788;8.824;2023-02-01T10:52:20;12.55;;;3.42;;
74612;SDS011;63119;51.788;8.824;2023-02-01T10:57:57;13.60;;;3.60;;
74612;SDS011;63119;51.788;8.824;2023-02-01T11:00:24;11.48;;;4.30;;
74612;SDS011;63119;51.788;8.824;2023-02-01T11:02:49;13.98;;;3.55;;
74612;SDS011;63119;51.788;8.824;2023-02-01T11:05:15;13.70;;;3.42;;
74612;SDS011;63119;51.788;8.824;2023-02-01T11:07:46;14.90;;;4.28;;
74612;SDS011;63119;51.788;8.824;2023-02-01T11:13:13;21.88;;;4.60;;
74612;SDS011;63119;51.788;8.824;2023-02-01T11:15:42;12.68;;;4.38;;
74612;SDS011;63119;51.788;8.824;2023-02-01T11:18:17;15.52;;;3.92;;
74612;SDS011;63119;51.788;8.824;2023-02-01T11:20:44;13.45;;;4.05;;
74612;SDS011;63119;51.788;8.824;2023-02-01T11:23:24;13.38;;;4.32;;
74612;SDS011;63119;51.788;8.824;2023-02-01T11:25:58;15.43;;;4.18;;
74612;SDS011;63119;51.788;8.824;2023-02-01T11:29:02;12.75;;;4.55;;
74612;SDS011;63119;51.788;8.824;2023-02-01T11:31:29;12.68;;;4.43;;
74612;SDS011;63119;51.788;8.824;2023-02-01T11:33:58;12.10;;;4.20;;
74612;SDS011;63119;51.788;8.824;2023-02-01T11:36:31;11.10;;;4.10;;
74612;SDS011;63119;51.788;8.824;2023-02-01T11:39:19;16.17;;;4.70;;
74612;SDS011;63119;51.788;8.824;2023-02-01T11:44:23;14.88;;;4.65;;
74612;SDS011;63119;51.788;8.824;2023-02-01T11:46:55;15.95;;;4.70;;
74612;SDS011;63119;51.788;8.824;2023-02-01T11:49:21;18.83;;;4.70;;
74612;SDS011;63119;51.788;8.824;2023-02-01T11:52:32;9.32;;;4.55;;
74612;SDS011;63119;51.788;8.824;2023-02-01T11:57:37;10.75;;;4.80;;
74612;SDS011;63119;51.788;8.824;2023-02-01T12:09:12;10.02;;;4.60;;
74612;SDS011;63119;51.788;8.824;2023-02-01T12:20:09;12.90;;;5.50;;
74612;SDS011;63119;51.788;8.824;2023-02-01T12:34:29;20.23;;;7.03;;
74612;SDS011;63119;51.788;8.824;2023-02-01T12:37:14;16.60;;;6.50;;
74612;SDS011;63119;51.788;8.824;2023-02-01T12:39:51;12.52;;;5.80;;
74612;SDS011;63119;51.788;8.824;2023-02-01T12:42:31;23.02;;;7.07;;
74612;SDS011;63119;51.788;8.824;2023-02-01T12:45:20;20.80;;;7.68;;
74612;SDS011;63119;51.788;8.824;2023-02-01T12:47:56;16.63;;;7.32;;
74612;SDS011;63119;51.788;8.824;2023-02-01T12:50:33;15.55;;;6.72;;
74612;SDS011;63119;51.788;8.824;2023-02-01T12:53:17;19.02;;;6.47;;
74612;SDS011;63119;51.788;8.824;2023-02-01T12:55:53;16.42;;;6.57;;
74612;SDS011;63119;51.788;8.824;2023-02-01T12:58:21;17.45;;;6.47;;
74612;SDS011;63119;51.788;8.824;2023-02-01T13:06:43;20.45;;;6.75;;
74612;SDS011;63119;51.788;8.824;2023-02-01T13:09:16;16.27;;;7.93;;
74612;SDS011;63119;51.788;8.824;2023-02-01T13:11:57;17.42;;;7.07;;
74612;SDS011;63119;51.788;8.824;2023-02-01T13:14:38;14.70;;;6.10;;
74612;SDS011;63119;51.788;8.824;2023-02-01T13:17:13;12.75;;;7.20;;
74612;SDS011;63119;51.788;8.824;2023-02-01T13:19:51;18.05;;;6.95;;
74612;SDS011;63119;51.788;8.824;2023-02-01T13:22:29;18.25;;;8.18;;
74612;SDS011;63119;51.788;8.824;2023-02-01T13:25:04;18.83;;;8.48;;
74612;SDS011;63119;51.788;8.824;2023-02-01T13:27:38;17.13;;;8.18;;
74612;SDS011;63119;51.788;8.824;2023-02-01T13:33:24;25.48;;;13.63;;
74612;SDS011;63119;51.788;8.824;2023-02-01T13:41:52;20.02;;;9.10;;
74612;SDS011;63119;51.788;8.824;2023-02-01T13:47:38;17.80;;;8.43;;
74612;SDS011;63119;51.788;8.824;2023-02-01T13:52:56;20.50;;;7.47;;
74612;SDS011;63119;51.788;8.824;2023-02-01T13:55:26;19.67;;;7.72;;
74612;SDS011;63119;51.788;8.824;2023-02-01T13:57:59;20.30;;;8.60;;
74612;SDS011;63119;51.788;8.824;2023-02-01T14:00:28;16.88;;;7.85;;
74612;SDS011;63119;51.788;8.824;2023-02-01T14:13:30;13.88;;;7.20;;
74612;SDS011;63119;51.788;8.824;2023-02-01T14:23:40;13.00;;;5.07;;
74612;SDS011;63119;51.788;8.824;2023-02-01T14:26:09;15.98;;;5.18;;
74612;SDS011;63119;51.788;8.824;2023-02-01T14:28:38;13.13;;;5.25;;
74612;SDS011;63119;51.788;8.824;2023-02-01T14:34:13;11.60;;;4.90;;
74612;SDS011;63119;51.788;8.824;2023-02-01T14:42:21;9.25;;;3.97;;
74612;SDS011;63119;51.788;8.824;2023-02-01T14:44:53;12.27;;;4.63;;
74612;SDS011;63119;51.788;8.824;2023-02-01T14:47:37;12.95;;;4.43;;
74612;SDS011;63119;51.788;8.824;2023-02-01T14:55:43;14.70;;;3.50;;
74612;SDS011;63119;51.788;8.824;2023-02-01T14:58:19;11.63;;;3.95;;
74612;SDS011;63119;51.788;8.824;2023-02-01T15:00:52;17.63;;;3.22;;
74612;SDS011;63119;51.788;8.824;2023-02-01T15:03:34;11.48;;;3.65;;
74612;SDS011;63119;51.788;8.824;2023-02-01T15:06:00;7.32;;;1.73;;
74612;SDS011;63119;51.788;8.824;2023-02-01T15:08:30;5.87;;;1.27;;
74612;SDS011;63119;51.788;8.824;2023-02-01T15:10:58;4.28;;;1.35;;
74612;SDS011;63119;51.788;8.824;2023-02-01T15:13:28;4.70;;;1.00;;
74612;SDS011;63119;51.788;8.824;2023-02-01T15:16:04;5.55;;;1.20;;
74612;SDS011;63119;51.788;8.824;2023-02-01T15:18:34;3.60;;;1.40;;
74612;SDS011;63119;51.788;8.824;2023-02-01T15:21:00;5.80;;;1.90;;
74612;SDS011;63119;51.788;8.824;2023-02-01T15:23:27;6.03;;;2.35;;
74612;SDS011;63119;51.788;8.824;2023-02-01T15:25:53;5.18;;;2.25;;
74612;SDS011;63119;51.788;8.824;2023-02-01T15:28:18;3.58;;;1.25;;
74612;SDS011;63119;51.788;8.824;2023-02-01T15:33:19;2.85;;;1.15;;
74612;SDS011;63119;51.788;8.824;2023-02-01T15:46:48;3.30;;;1.58;;
74612;SDS011;63119;51.788;8.824;2023-02-01T15:49:17;3.03;;;1.20;;
74612;SDS011;63119;51.788;8.824;2023-02-01T15:51:46;3.47;;;1.50;;
74612;SDS011;63119;51.788;8.824;2023-02-01T15:54:16;6.30;;;1.50;;
74612;SDS011;63119;51.788;8.824;2023-02-01T15:56:44;7.43;;;1.83;;
74612;SDS011;63119;51.788;8.824;2023-02-01T15:59:18;6.07;;;1.60;;
74612;SDS011;63119;51.788;8.824;2023-02-01T16:01:54;5.90;;;2.05;;
74612;SDS011;63119;51.788;8.824;2023-02-01T16:04:26;10.70;;;2.00;;
74612;SDS011;63119;51.788;8.824;2023-02-01T16:06:56;6.18;;;1.98;;
74612;SDS011;63119;51.788;8.824;2023-02-01T16:09:35;8.95;;;2.33;;
74612;SDS011;63119;51.788;8.824;2023-02-01T16:12:23;9.25;;;2.25;;
74612;SDS011;63119;51.788;8.824;2023-02-01T16:14:55;11.50;;;3.58;;
74612;SDS011;63119;51.788;8.824;2023-02-01T16:17:20;8.57;;;2.50;;
74612;SDS011;63119;51.788;8.824;2023-02-01T16:19:45;6.07;;;2.60;;
74612;SDS011;63119;51.788;8.824;2023-02-01T16:22:10;7.33;;;2.27;;
74612;SDS011;63119;51.788;8.824;2023-02-01T16:24:36;8.63;;;2.70;;
74612;SDS011;63119;51.788;8.824;2023-02-01T16:27:01;6.27;;;2.73;;
74612;SDS011;63119;51.788;8.824;2023-02-01T16:29:27;11.65;;;5.60;;
74612;SDS011;63119;51.788;8.824;2023-02-01T16:31:53;11.55;;;3.13;;
74612;SDS011;63119;51.788;8.824;2023-02-01T16:34:18;8.45;;;3.80;;
74612;SDS011;63119;51.788;8.824;2023-02-01T16:36:47;15.00;;;7.25;;
74612;SDS011;63119;51.788;8.824;2023-02-01T16:39:17;11.07;;;4.50;;
74612;SDS011;63119;51.788;8.824;2023-02-01T16:41:44;10.00;;;4.05;;
74612;SDS011;63119;51.788;8.824;2023-02-01T16:44:10;8.45;;;3.25;;
74612;SDS011;63119;51.788;8.824;2023-02-01T16:46:35;10.43;;;3.22;;
74612;SDS011;63119;51.788;8.824;2023-02-01T16:49:05;11.23;;;3.20;;
74612;SDS011;63119;51.788;8.824;2023-02-01T16:51:40;8.43;;;3.08;;
74612;SDS011;63119;51.788;8.824;2023-02-01T16:54:05;10.88;;;2.47;;
74612;SDS011;63119;51.788;8.824;2023-02-01T16:56:31;7.60;;;2.40;;
74612;SDS011;63119;51.788;8.824;2023-02-01T16:58:58;9.77;;;2.55;;
74612;SDS011;63119;51.788;8.824;2023-02-01T17:01:23;5.65;;;2.00;;
74612;SDS011;63119;51.788;8.824;2023-02-01T17:03:49;6.82;;;2.05;;
74612;SDS011;63119;51.788;8.824;2023-02-01T17:06:16;7.20;;;1.98;;
74612;SDS011;63119;51.788;8.824;2023-02-01T17:11:11;11.55;;;1.65;;
74612;SDS011;63119;51.788;8.824;2023-02-01T17:13:38;4.88;;;1.55;;
74612;SDS011;63119;51.788;8.824;2023-02-01T17:16:08;6.68;;;1.92;;
74612;SDS011;63119;51.788;8.824;2023-02-01T17:18:46;6.35;;;2.13;;
74612;SDS011;63119;51.788;8.824;2023-02-01T17:21:16;6.65;;;2.25;;
74612;SDS011;63119;51.788;8.824;2023-02-01T17:23:41;5.37;;;1.80;;
74612;SDS011;63119;51.788;8.824;2023-02-01T17:26:10;9.93;;;2.27;;